createdAt,value
2018-05-17T00:00:34.656Z,34.90
2018-05-17T00:03:02.877Z,34.90
2018-05-17T00:05:30.346Z,34.80
2018-05-17T00:07:58.560Z,35.00
2018-05-17T00:10:26.800Z,35.00
2018-05-17T00:12:54.272Z,35.00
2018-05-17T00:15:21.741Z,35.00
2018-05-17T00:17:49.196Z,34.90
2018-05-17T00:20:16.666Z,34.90
2018-05-17T00:22:44.908Z,34.90
2018-05-17T00:25:12.419Z,34.80
2018-05-17T00:27:39.879Z,34.90
2018-05-17T00:30:08.124Z,34.90
2018-05-17T00:32:35.580Z,34.80
2018-05-17T00:35:03.059Z,34.80
2018-05-17T00:37:31.288Z,34.90
2018-05-17T00:39:58.746Z,34.80
2018-05-17T00:42:26.972Z,35.00
2018-05-17T00:44:55.200Z,35.00
2018-05-17T00:47:22.658Z,35.00
2018-05-17T00:49:50.117Z,35.00
2018-05-17T00:52:17.613Z,35.00
2018-05-17T00:54:45.038Z,35.00
2018-05-17T00:57:12.511Z,35.00
2018-05-17T00:59:39.984Z,35.00
2018-05-17T01:02:08.268Z,35.00
2018-05-17T01:04:35.736Z,34.90
2018-05-17T01:07:03.969Z,35.10
2018-05-17T01:09:31.432Z,35.10
2018-05-17T01:11:58.905Z,35.20
2018-05-17T01:14:26.361Z,35.20
2018-05-17T01:16:54.601Z,35.30
2018-05-17T01:19:22.085Z,35.30
2018-05-17T01:21:49.554Z,35.30
2018-05-17T01:24:17.767Z,35.50
2018-05-17T01:26:45.239Z,35.50
2018-05-17T01:29:12.696Z,35.60
2018-05-17T01:31:40.164Z,35.80
2018-05-17T01:34:07.716Z,36.10
2018-05-17T01:36:35.260Z,36.10
2018-05-17T01:39:02.718Z,36.50
2018-05-17T01:41:30.176Z,36.50
2018-05-17T01:43:57.632Z,36.80
2018-05-17T01:46:25.105Z,36.90
2018-05-17T01:48:52.563Z,37.10
2018-05-17T01:51:20.052Z,37.20
2018-05-17T01:53:47.508Z,37.30
2018-05-17T01:56:14.977Z,37.50
2018-05-17T01:58:43.198Z,37.80
2018-05-17T02:01:10.672Z,37.80
2018-05-17T02:03:38.150Z,37.90
2018-05-17T02:06:05.621Z,38.10
2018-05-17T02:08:33.840Z,38.20
2018-05-17T02:11:01.304Z,38.30
2018-05-17T02:13:29.521Z,38.60
2018-05-17T02:15:56.978Z,38.50
2018-05-17T02:18:24.440Z,38.70
2018-05-17T02:20:51.919Z,38.90
2018-05-17T02:23:20.146Z,39.30
2018-05-17T02:25:47.617Z,39.30
2018-05-17T02:28:15.836Z,39.60
2018-05-17T02:30:43.308Z,40.20
2018-05-17T02:33:10.753Z,39.50
2018-05-17T02:35:38.220Z,39.60
2018-05-17T02:38:05.689Z,39.60
2018-05-17T02:40:33.161Z,39.70
2018-05-17T02:43:00.613Z,39.60
2018-05-17T02:45:28.070Z,39.80
2018-05-17T02:47:55.539Z,40.00
2018-05-17T02:50:22.992Z,40.10
2018-05-17T02:52:51.232Z,40.30
2018-05-17T02:55:18.686Z,40.30
2018-05-17T02:57:46.918Z,40.60
2018-05-17T03:00:14.377Z,40.60
2018-05-17T03:02:41.866Z,40.70
2018-05-17T03:05:10.090Z,40.90
2018-05-17T03:07:37.565Z,40.80
2018-05-17T03:10:05.029Z,40.80
2018-05-17T03:12:32.488Z,41.00
2018-05-17T03:14:59.965Z,41.00
2018-05-17T03:17:27.428Z,41.30
2018-05-17T03:19:55.650Z,41.60
2018-05-17T03:22:23.117Z,41.50
2018-05-17T03:24:50.584Z,41.50
2018-05-17T03:27:18.816Z,41.60
2018-05-17T03:29:46.264Z,41.60
2018-05-17T03:32:13.737Z,41.70
2018-05-17T03:34:41.182Z,41.70
2018-05-17T03:37:08.678Z,41.90
2018-05-17T03:39:36.124Z,41.80
2018-05-17T03:42:03.592Z,41.80
2018-05-17T03:44:31.048Z,41.80
2018-05-17T03:46:58.516Z,42.00
2018-05-17T03:49:25.968Z,42.10
2018-05-17T03:51:53.420Z,42.00
2018-05-17T03:54:20.876Z,41.90
2018-05-17T03:56:48.347Z,42.10
2018-05-17T03:59:15.804Z,42.20
2018-05-17T04:01:55.197Z,42.30
2018-05-17T04:04:35.249Z,42.20
2018-05-17T04:07:03.480Z,42.30
2018-05-17T04:09:30.994Z,42.30
2018-05-17T04:11:58.468Z,42.40
2018-05-17T04:14:25.928Z,42.40
2018-05-17T04:16:53.438Z,42.30
2018-05-17T04:19:20.972Z,42.40
2018-05-17T04:21:48.440Z,42.50
2018-05-17T04:24:16.677Z,42.50
2018-05-17T04:26:44.155Z,42.50
2018-05-17T04:29:11.629Z,42.40
2018-05-17T04:31:39.068Z,42.50
2018-05-17T04:34:06.567Z,42.60
2018-05-17T04:36:34.039Z,42.70
2018-05-17T04:39:01.521Z,42.70
2018-05-17T04:41:29.750Z,42.60
2018-05-17T04:43:57.980Z,42.70
2018-05-17T04:46:25.448Z,42.60
2018-05-17T04:48:52.931Z,42.80
2018-05-17T04:51:20.376Z,42.80
2018-05-17T04:53:47.844Z,42.80
2018-05-17T04:56:15.305Z,42.80
2018-05-17T04:58:42.768Z,42.80
2018-05-17T05:01:10.297Z,42.80
2018-05-17T05:03:37.765Z,42.90
2018-05-17T05:06:05.227Z,42.90
2018-05-17T05:08:32.704Z,43.10
2018-05-17T05:11:00.156Z,43.00
2018-05-17T05:13:27.616Z,43.00
2018-05-17T05:15:55.072Z,42.90
2018-05-17T05:18:23.326Z,42.80
2018-05-17T05:20:50.790Z,42.80
2018-05-17T05:23:18.264Z,42.90
2018-05-17T05:25:45.716Z,42.70
2018-05-17T05:28:13.181Z,42.80
2018-05-17T05:30:41.153Z,42.70
2018-05-17T05:33:10.504Z,42.80
2018-05-17T05:35:38.712Z,42.80
2018-05-17T05:38:06.193Z,42.70
2018-05-17T05:40:33.664Z,42.60
2018-05-17T05:43:01.153Z,42.70
2018-05-17T05:45:28.657Z,42.70
2018-05-17T05:47:56.117Z,42.60
2018-05-17T05:50:23.576Z,42.70
2018-05-17T05:52:51.037Z,42.80
2018-05-17T05:55:18.497Z,42.70
2018-05-17T05:57:46.749Z,42.70
2018-05-17T06:00:14.217Z,42.70
2018-05-17T06:02:43.197Z,42.60
2018-05-17T06:05:10.660Z,42.60
2018-05-17T06:07:38.132Z,42.40
2018-05-17T06:10:05.586Z,42.40
2018-05-17T06:12:33.043Z,42.50
2018-05-17T06:15:00.500Z,42.50
2018-05-17T06:17:28.044Z,42.10
2018-05-17T06:19:55.421Z,42.30
2018-05-17T06:22:22.935Z,42.20
2018-05-17T06:24:51.148Z,42.10
2018-05-17T06:27:19.392Z,42.00
2018-05-17T06:29:46.860Z,41.90
2018-05-17T06:32:15.188Z,42.20
2018-05-17T06:34:43.442Z,42.00
2018-05-17T06:37:10.974Z,42.00
2018-05-17T06:39:38.453Z,41.90
2018-05-17T06:42:07.420Z,41.80
2018-05-17T06:44:34.905Z,41.80
2018-05-17T06:47:02.356Z,41.90
2018-05-17T06:49:30.372Z,41.80
2018-05-17T06:51:57.839Z,42.00
2018-05-17T06:54:25.329Z,41.90
2018-05-17T06:56:53.936Z,41.90
2018-05-17T06:59:21.445Z,41.80
2018-05-17T07:01:49.722Z,41.70
2018-05-17T07:04:17.176Z,41.60
2018-05-17T07:06:45.401Z,41.60
2018-05-17T07:09:12.864Z,41.60
2018-05-17T07:11:40.312Z,41.50
2018-05-17T07:14:07.773Z,41.60
2018-05-17T07:16:35.236Z,41.70
2018-05-17T07:19:03.486Z,41.60
2018-05-17T07:21:31.955Z,41.50
2018-05-17T07:23:59.444Z,41.50
2018-05-17T07:26:26.900Z,41.60
2018-05-17T07:28:55.165Z,42.10
2018-05-17T07:31:22.735Z,41.50
2018-05-17T07:33:50.888Z,41.40
2018-05-17T07:36:18.350Z,41.40
2018-05-17T07:38:46.634Z,41.60
2018-05-17T07:41:14.097Z,41.90
2018-05-17T07:43:41.566Z,41.40
2018-05-17T07:46:09.812Z,41.50
2018-05-17T07:48:37.285Z,41.50
2018-05-17T07:51:04.756Z,41.60
2018-05-17T07:53:32.221Z,41.40
2018-05-17T07:56:00.449Z,41.40
2018-05-17T07:58:27.931Z,41.40
2018-05-17T08:00:55.407Z,41.30
2018-05-17T08:03:22.872Z,41.30
2018-05-17T08:05:51.092Z,41.30
2018-05-17T08:08:18.569Z,41.30
2018-05-17T08:10:46.025Z,41.30
2018-05-17T08:13:13.496Z,41.10
2018-05-17T08:15:40.949Z,41.10
2018-05-17T08:18:08.414Z,41.20
2018-05-17T08:20:36.648Z,40.70
2018-05-17T08:23:04.200Z,40.70
2018-05-17T08:25:31.702Z,40.60
2018-05-17T08:27:59.169Z,40.80
2018-05-17T08:30:26.637Z,40.80
2018-05-17T08:32:54.092Z,40.50
2018-05-17T08:35:22.332Z,40.70
2018-05-17T08:37:49.807Z,40.70
2018-05-17T08:40:17.260Z,40.40
2018-05-17T08:42:45.502Z,40.30
2018-05-17T08:45:12.974Z,40.30
2018-05-17T08:47:40.439Z,40.30
2018-05-17T08:50:08.673Z,40.00
2018-05-17T08:52:36.121Z,40.00
2018-05-17T08:55:04.348Z,39.40
2018-05-17T08:57:31.825Z,39.30
2018-05-17T08:59:59.291Z,39.50
2018-05-17T09:02:27.517Z,39.40
2018-05-17T09:04:54.993Z,39.30
2018-05-17T09:07:22.449Z,39.20
2018-05-17T09:09:49.916Z,39.10
2018-05-17T09:12:17.369Z,38.90
2018-05-17T09:14:44.836Z,38.90
2018-05-17T09:17:12.457Z,38.70
2018-05-17T09:19:39.936Z,38.40
2018-05-17T09:22:07.385Z,38.20
2018-05-17T09:24:34.858Z,38.30
2018-05-17T09:27:03.081Z,38.40
2018-05-17T09:29:31.319Z,38.20
2018-05-17T09:31:58.773Z,38.20
2018-05-17T09:34:26.242Z,38.00
2018-05-17T09:36:53.702Z,37.70
2018-05-17T09:39:21.165Z,37.60
2018-05-17T09:41:48.624Z,37.30
2018-05-17T09:44:16.857Z,37.20
2018-05-17T09:46:45.074Z,36.90
2018-05-17T09:49:14.044Z,36.90
2018-05-17T09:51:41.502Z,36.90
2018-05-17T09:54:09.729Z,36.80
2018-05-17T09:56:37.956Z,36.70
2018-05-17T09:59:05.421Z,36.70
2018-05-17T10:01:32.877Z,36.90
2018-05-17T10:04:00.348Z,36.90
2018-05-17T10:06:27.805Z,36.80
2018-05-17T10:08:56.119Z,36.80
2018-05-17T10:11:23.497Z,36.80
2018-05-17T10:13:50.967Z,36.90
2018-05-17T10:16:18.412Z,36.70
2018-05-17T10:18:45.884Z,36.70
2018-05-17T10:21:13.351Z,36.40
2018-05-17T10:23:40.819Z,36.40
2018-05-17T10:26:08.274Z,36.80
2018-05-17T10:28:35.749Z,37.50
2018-05-17T10:31:03.193Z,37.00
2018-05-17T10:33:30.652Z,37.00
2018-05-17T10:35:58.116Z,37.10
2018-05-17T10:38:27.085Z,36.90
2018-05-17T10:40:55.323Z,36.70
2018-05-17T10:43:22.780Z,36.70
2018-05-17T10:45:50.254Z,36.60
2018-05-17T10:48:17.736Z,36.70
2018-05-17T10:50:45.208Z,36.50
2018-05-17T10:53:12.663Z,36.40
2018-05-17T10:55:40.918Z,36.00
2018-05-17T10:58:09.139Z,36.00
2018-05-17T11:00:37.368Z,36.10
2018-05-17T11:03:04.825Z,36.10
2018-05-17T11:05:32.292Z,36.20
2018-05-17T11:07:59.761Z,36.10
2018-05-17T11:10:27.235Z,36.20
2018-05-17T11:12:54.684Z,36.30
2018-05-17T11:15:23.018Z,36.50
2018-05-17T11:17:50.386Z,36.50
2018-05-17T11:20:17.857Z,36.70
2018-05-17T11:22:45.313Z,36.80
2018-05-17T11:25:12.784Z,37.00
2018-05-17T11:27:40.256Z,37.10
2018-05-17T11:30:07.719Z,37.30
2018-05-17T11:32:35.944Z,37.50
2018-05-17T11:35:03.408Z,37.40
2018-05-17T11:37:30.864Z,38.00
2018-05-17T11:39:58.351Z,37.40
2018-05-17T11:42:25.800Z,37.50
2018-05-17T11:44:53.257Z,37.50
2018-05-17T11:47:20.729Z,37.50
2018-05-17T11:49:48.189Z,38.20
2018-05-17T11:52:16.405Z,37.60
2018-05-17T11:54:43.884Z,37.60
2018-05-17T11:57:12.104Z,37.60
2018-05-17T11:59:39.564Z,37.60
2018-05-17T12:02:07.788Z,37.70
2018-05-17T12:04:35.263Z,37.70
2018-05-17T12:07:02.738Z,37.80
2018-05-17T12:09:30.199Z,37.70
2018-05-17T12:11:57.649Z,37.50
2018-05-17T12:14:25.114Z,37.40
2018-05-17T12:16:52.577Z,37.30
2018-05-17T12:19:20.824Z,37.20
2018-05-17T12:21:48.281Z,37.20
2018-05-17T12:24:15.768Z,37.10
2018-05-17T12:26:44.004Z,35.00
2018-05-17T12:29:12.227Z,34.50
2018-05-17T12:31:39.718Z,34.40
2018-05-17T12:34:07.904Z,33.90
2018-05-17T12:36:35.364Z,33.90
2018-05-17T12:39:02.824Z,33.20
2018-05-17T12:41:30.284Z,32.90
2018-05-17T12:43:57.736Z,33.10
2018-05-17T12:46:25.210Z,33.80
2018-05-17T12:48:52.665Z,34.20
2018-05-17T12:51:20.141Z,34.50
2018-05-17T12:53:47.592Z,35.00
2018-05-17T12:56:15.050Z,35.30
2018-05-17T12:58:42.586Z,35.30
2018-05-17T13:01:09.977Z,35.30
2018-05-17T13:03:37.434Z,35.50
2018-05-17T13:06:05.097Z,35.70
2018-05-17T13:08:32.552Z,35.60
2018-05-17T13:11:00.176Z,35.60
2018-05-17T13:13:27.633Z,35.50
2018-05-17T13:15:55.105Z,35.70
2018-05-17T13:18:22.573Z,35.90
2018-05-17T13:20:50.035Z,36.10
2018-05-17T13:23:17.480Z,36.20
2018-05-17T13:25:44.951Z,36.30
2018-05-17T13:28:12.413Z,36.40
2018-05-17T13:30:39.877Z,36.30
2018-05-17T13:33:07.333Z,36.50
2018-05-17T13:35:34.789Z,36.50
2018-05-17T13:38:02.282Z,36.80
2018-05-17T13:40:30.509Z,36.70
2018-05-17T13:42:57.965Z,36.70
2018-05-17T13:45:25.424Z,36.60
2018-05-17T13:47:52.931Z,36.70
2018-05-17T13:50:21.136Z,36.60
2018-05-17T13:52:48.605Z,36.60
2018-05-17T13:55:16.073Z,36.20
2018-05-17T13:57:43.613Z,35.70
2018-05-17T14:00:10.991Z,35.70
2018-05-17T14:02:38.660Z,35.80
2018-05-17T14:05:05.978Z,35.80
2018-05-17T14:07:33.444Z,35.80
2018-05-17T14:10:00.905Z,36.00
2018-05-17T14:12:28.372Z,36.20
2018-05-17T14:14:55.849Z,36.40
2018-05-17T14:17:24.120Z,36.40
2018-05-17T14:19:51.593Z,36.30
2018-05-17T14:22:19.055Z,36.60
2018-05-17T14:24:46.505Z,36.60
2018-05-17T14:27:14.284Z,36.60
2018-05-17T14:29:42.507Z,37.00
2018-05-17T14:32:09.981Z,36.90
2018-05-17T14:34:37.500Z,37.10
2018-05-17T14:37:04.997Z,37.20
2018-05-17T14:39:32.453Z,37.20
2018-05-17T14:42:00.697Z,37.40
2018-05-17T14:44:28.163Z,37.30
2018-05-17T14:46:55.636Z,37.40
2018-05-17T14:49:23.105Z,37.30
2018-05-17T14:51:50.639Z,37.20
2018-05-17T14:54:18.811Z,37.10
2018-05-17T14:56:46.307Z,37.10
2018-05-17T14:59:13.756Z,37.10
2018-05-17T15:01:41.232Z,37.10
2018-05-17T15:04:09.464Z,37.70
2018-05-17T15:06:36.932Z,37.30
2018-05-17T15:09:05.943Z,37.20
2018-05-17T15:11:34.178Z,37.20
2018-05-17T15:14:01.651Z,37.20
2018-05-17T15:16:29.089Z,37.20
2018-05-17T15:18:56.552Z,37.20
2018-05-17T15:21:24.029Z,37.00
2018-05-17T15:23:51.496Z,36.90
2018-05-17T15:26:18.968Z,37.10
2018-05-17T15:28:46.426Z,37.80
2018-05-17T15:31:13.896Z,37.00
2018-05-17T15:33:42.117Z,36.90
2018-05-17T15:36:09.590Z,36.90
2018-05-17T15:38:37.049Z,36.80
2018-05-17T15:41:04.509Z,36.90
2018-05-17T15:43:31.960Z,36.90
2018-05-17T15:46:00.197Z,37.20
2018-05-17T15:48:28.412Z,37.20
2018-05-17T15:50:55.872Z,37.10
2018-05-17T15:53:24.095Z,36.80
2018-05-17T15:55:51.570Z,36.80
2018-05-17T15:58:19.021Z,36.60
2018-05-17T16:00:47.257Z,36.20
2018-05-17T16:03:14.726Z,36.20
2018-05-17T16:05:42.188Z,36.10
2018-05-17T16:08:09.644Z,35.80
2018-05-17T16:10:37.106Z,35.80
2018-05-17T16:13:04.556Z,35.90
2018-05-17T16:15:32.088Z,36.00
2018-05-17T16:17:59.516Z,36.10
2018-05-17T16:20:27.041Z,35.70
2018-05-17T16:22:55.286Z,35.50
2018-05-17T16:25:22.821Z,35.30
2018-05-17T16:27:50.303Z,35.70
2018-05-17T16:30:17.761Z,36.50
2018-05-17T16:32:45.371Z,36.20
2018-05-17T16:35:12.840Z,37.50
2018-05-17T16:37:40.308Z,37.80
2018-05-17T16:40:07.764Z,36.60
2018-05-17T16:42:35.306Z,35.80
2018-05-17T16:45:02.709Z,36.20
2018-05-17T16:47:30.187Z,36.40
2018-05-17T16:49:57.701Z,35.80
2018-05-17T16:52:25.185Z,35.80
2018-05-17T16:54:52.640Z,36.10
2018-05-17T16:57:20.096Z,36.00
2018-05-17T16:59:47.548Z,36.70
2018-05-17T17:02:15.017Z,38.30
2018-05-17T17:04:42.514Z,38.20
2018-05-17T17:07:09.936Z,38.20
2018-05-17T17:09:37.419Z,37.60
2018-05-17T17:12:05.039Z,37.60
2018-05-17T17:14:32.521Z,37.40
2018-05-17T17:17:00.009Z,37.80
2018-05-17T17:19:27.464Z,37.40
2018-05-17T17:21:55.708Z,38.10
2018-05-17T17:24:23.164Z,38.00
2018-05-17T17:26:50.656Z,37.90
2018-05-17T17:29:19.612Z,37.90
2018-05-17T17:31:49.008Z,37.90
2018-05-17T17:34:16.502Z,37.80
2018-05-17T17:36:43.945Z,37.70
2018-05-17T17:39:11.398Z,38.40
2018-05-17T17:41:38.856Z,38.30
2018-05-17T17:44:06.345Z,38.20
2018-05-17T17:46:34.664Z,38.30
2018-05-17T17:49:02.146Z,38.20
2018-05-17T17:51:29.604Z,38.50
2018-05-17T17:53:57.069Z,38.90
2018-05-17T17:56:24.545Z,39.60
2018-05-17T17:58:51.988Z,39.10
2018-05-17T18:01:19.464Z,38.90
2018-05-17T18:03:46.920Z,38.80
2018-05-17T18:06:15.145Z,39.70
2018-05-17T18:08:42.603Z,39.00
2018-05-17T18:11:10.077Z,38.80
2018-05-17T18:13:37.534Z,38.70
2018-05-17T18:16:05.005Z,39.10
2018-05-17T18:18:33.417Z,39.00
2018-05-17T18:21:00.881Z,39.00
2018-05-17T18:23:28.345Z,39.30
2018-05-17T18:25:55.805Z,39.00
2018-05-17T18:28:23.284Z,38.90
2018-05-17T18:30:50.764Z,39.30
2018-05-17T18:33:18.304Z,39.30
2018-05-17T18:35:45.758Z,39.40
2018-05-17T18:38:13.225Z,39.40
2018-05-17T18:40:40.676Z,39.20
2018-05-17T18:43:08.243Z,39.20
2018-05-17T18:45:35.596Z,39.00
2018-05-17T18:48:03.068Z,39.30
2018-05-17T18:50:30.524Z,39.30
2018-05-17T18:52:57.989Z,39.30
2018-05-17T18:55:25.450Z,39.10
2018-05-17T18:57:52.985Z,39.30
2018-05-17T19:00:20.515Z,39.40
2018-05-17T19:02:48.880Z,39.10
2018-05-17T19:05:16.358Z,39.60
2018-05-17T19:07:43.816Z,39.60
2018-05-17T19:10:11.315Z,39.30
2018-05-17T19:12:38.856Z,39.90
2018-05-17T19:15:06.311Z,39.80
2018-05-17T19:17:33.812Z,39.60
2018-05-17T19:20:02.045Z,39.50
2018-05-17T19:22:29.539Z,39.60
2018-05-17T19:24:57.004Z,39.50
2018-05-17T19:27:25.244Z,39.80
2018-05-17T19:29:52.740Z,39.70
2018-05-17T19:32:20.976Z,39.60
2018-05-17T19:34:48.436Z,39.50
2018-05-17T19:37:15.981Z,39.40
2018-05-17T19:39:43.360Z,39.30
2018-05-17T19:42:10.828Z,39.60
2018-05-17T19:44:38.279Z,39.60
2018-05-17T19:47:05.740Z,39.50
2018-05-17T19:49:33.200Z,39.50
2018-05-17T19:52:00.657Z,39.50
2018-05-17T19:54:28.128Z,39.80
2018-05-17T19:56:55.593Z,40.00
2018-05-17T19:59:23.094Z,39.90
2018-05-17T20:01:50.556Z,40.00
2018-05-17T20:04:18.804Z,39.90
2018-05-17T20:06:47.024Z,39.90
2018-05-17T20:09:14.513Z,39.90
2018-05-17T20:11:43.476Z,39.90
2018-05-17T20:14:10.941Z,40.50
2018-05-17T20:16:38.401Z,39.80
2018-05-17T20:19:05.891Z,39.90
2018-05-17T20:21:33.317Z,39.90
2018-05-17T20:24:00.792Z,40.00
2018-05-17T20:26:28.253Z,40.20
2018-05-17T20:28:55.712Z,40.10
2018-05-17T20:31:23.164Z,40.00
2018-05-17T20:33:52.138Z,39.60
2018-05-17T20:36:19.596Z,39.60
2018-05-17T20:38:47.053Z,39.90
2018-05-17T20:41:14.592Z,39.90
2018-05-17T20:43:42.074Z,40.20
2018-05-17T20:46:09.525Z,40.40
2018-05-17T20:48:36.985Z,40.40
2018-05-17T20:51:04.470Z,40.30
2018-05-17T20:53:31.920Z,39.80
2018-05-17T20:55:59.380Z,39.50
2018-05-17T20:58:26.831Z,39.30
2018-05-17T21:00:54.293Z,39.00
2018-05-17T21:03:21.749Z,39.00
2018-05-17T21:05:49.229Z,38.80
2018-05-17T21:08:17.441Z,38.40
2018-05-17T21:10:45.244Z,38.40
2018-05-17T21:13:13.456Z,39.50
2018-05-17T21:15:41.749Z,40.00
2018-05-17T21:18:09.208Z,40.00
2018-05-17T21:20:38.620Z,40.00
2018-05-17T21:23:06.082Z,39.60
2018-05-17T21:25:33.569Z,39.90
2018-05-17T21:28:01.030Z,40.10
2018-05-17T21:30:28.500Z,40.30
2018-05-17T21:32:55.957Z,40.00
2018-05-17T21:35:23.424Z,39.80
2018-05-17T21:37:51.649Z,40.00
2018-05-17T21:40:19.137Z,40.00
2018-05-17T21:42:46.599Z,40.60
2018-05-17T21:45:14.068Z,40.30
2018-05-17T21:47:42.291Z,40.80
2018-05-17T21:50:09.753Z,40.80
2018-05-17T21:52:37.980Z,40.70
2018-05-17T21:55:05.450Z,40.60
2018-05-17T21:57:32.916Z,41.10
2018-05-17T22:00:00.387Z,41.20
2018-05-17T22:02:27.824Z,41.20
2018-05-17T22:04:56.074Z,40.80
2018-05-17T22:07:23.706Z,40.70
2018-05-17T22:09:51.220Z,40.80
2018-05-17T22:12:18.709Z,40.90
2018-05-17T22:14:46.172Z,41.20
2018-05-17T22:17:13.629Z,41.70
2018-05-17T22:19:41.094Z,41.90
2018-05-17T22:22:08.557Z,42.10
2018-05-17T22:24:36.014Z,41.90
2018-05-17T22:27:04.256Z,42.90
2018-05-17T22:29:31.747Z,42.90
2018-05-17T22:31:59.212Z,43.70
2018-05-17T22:34:26.681Z,44.40
2018-05-17T22:36:54.150Z,44.70
2018-05-17T22:39:21.600Z,45.60
2018-05-17T22:41:49.084Z,45.30
2018-05-17T22:44:16.570Z,45.70
2018-05-17T22:46:44.051Z,46.10
2018-05-17T22:49:12.287Z,46.60
2018-05-17T22:51:39.770Z,46.60
2018-05-17T22:54:07.257Z,46.70
2018-05-17T22:56:46.626Z,46.90
2018-05-17T22:59:14.870Z,47.10
2018-05-17T23:01:42.361Z,47.10
2018-05-17T23:04:09.857Z,47.00
2018-05-17T23:06:38.128Z,47.20
2018-05-17T23:09:05.608Z,47.10
2018-05-17T23:11:33.096Z,47.20
2018-05-17T23:14:01.346Z,47.30
2018-05-17T23:16:28.881Z,47.30
2018-05-17T23:18:56.361Z,47.60
2018-05-17T23:21:23.849Z,47.70
2018-05-17T23:23:51.333Z,47.70
2018-05-17T23:26:19.578Z,47.90
2018-05-17T23:28:47.100Z,47.90
2018-05-17T23:31:14.650Z,47.90
2018-05-17T23:33:42.162Z,47.90
2018-05-17T23:36:10.421Z,48.10
2018-05-17T23:38:37.925Z,48.10
2018-05-17T23:41:18.049Z,48.20
2018-05-17T23:43:45.549Z,48.20
2018-05-17T23:46:13.830Z,48.50
2018-05-17T23:48:41.326Z,48.40
2018-05-17T23:51:09.580Z,48.80
2018-05-17T23:53:37.085Z,48.80
2018-05-17T23:56:05.366Z,48.70
2018-05-17T23:58:33.629Z,48.80
